Lesage, West Virginia
Current Conditions -  °F | °C
As of 12:51 PM on Thursday 23 Oct 2014 (Local Time) from KHTS Reporting Station
Scattered Clouds Scattered Clouds  
Wind Chill: 56°   Ceiling: Unl
Heat Index: 56°   Visibility: 10mi
Dew Point: 43°   Wind: 5mph
Humidity: 62%   Direction: NA
Pressure: 30.21"   Gusts: NA
Location:  38.51°N, 82.3°W
Report Text: KHTS 231651Z AUTO VRB04KT 10SM SCT033 SCT040 13/06 A3021 RMK AO2 SLP228 T01330061 TSNO
Loading
Personal Weather Stations






























Interactive Weather Map
Tropical Storm Tracking
New forecast layout! Learn more

10-Day Weather Forecast

Advertisements
Track Severe Weather on mobile